Time;durP1;ratioP1;P1;durP2;ratioP2;P2;SDS_P1;SDS_P2;PMS_P1;PMS_P2;Temp;Humidity;BMP_temperature;BMP_pressure;BME280_temperature;BME280_humidity;BME280_pressure;Samples;Min_cycle;Max_cycle;Signal;HPM_P1;HPM_P2
2021/12/11 00:01:10;;;;;;;3.28;1.35;;;;;;;0.30;84.55;92638.38;4838974;29;20060;-69
2021/12/11 00:03:41;;;;;;;1.88;0.80;;;;;;;0.36;83.50;92631.44;4838099;29;20046;-70
2021/12/11 00:06:21;;;;;;;2.35;1.13;;;;;;;0.38;83.63;92634.53;4829248;29;20138;-69
2021/12/11 00:08:52;;;;;;;2.15;0.90;;;;;;;0.41;83.76;92643.00;4829860;29;20042;-69
2021/12/11 00:11:35;;;;;;;1.60;0.70;;;;;;;0.41;83.27;92653.81;4821495;29;20050;-69
2021/12/11 00:14:05;;;;;;;7.57;2.00;;;;;;;0.37;84.03;92653.78;4821566;29;20054;-69
2021/12/11 00:16:34;;;;;;;2.30;0.75;;;;;;;0.40;84.89;92663.81;4821226;29;21854;-69
2021/12/11 00:19:12;;;;;;;2.78;1.08;;;;;;;0.42;84.77;92674.22;4821815;29;20078;-69
2021/12/11 00:21:40;;;;;;;2.58;1.10;;;;;;;0.28;86.93;92666.88;4820404;29;20058;-69
2021/12/11 00:24:23;;;;;;;9.13;1.90;;;;;;;0.35;87.41;92681.16;4820761;29;20054;-69
2021/12/11 00:27:00;;;;;;;3.15;1.05;;;;;;;0.25;87.01;92671.09;4821524;29;20073;-69
2021/12/11 00:29:28;;;;;;;2.95;0.90;;;;;;;0.17;87.48;92680.31;4820752;29;20054;-69
2021/12/11 00:32:07;;;;;;;2.20;0.70;;;;;;;0.14;87.47;92681.06;4821203;29;20058;-69
2021/12/11 00:34:38;;;;;;;2.20;0.98;;;;;;;0.13;87.47;92690.34;4820206;29;21479;-70
2021/12/11 00:37:07;;;;;;;2.03;1.00;;;;;;;0.15;87.47;92686.09;4820786;29;20050;-68
2021/12/11 00:39:43;;;;;;;1.92;0.82;;;;;;;0.12;87.45;92691.47;4835080;29;20480;-69
2021/12/11 00:42:12;;;;;;;3.20;1.48;;;;;;;0.16;87.26;92694.94;4820628;29;20086;-70
2021/12/11 00:44:47;;;;;;;1.85;0.75;;;;;;;0.16;86.92;92697.66;4821132;29;20058;-69
2021/12/11 00:47:18;;;;;;;2.97;1.33;;;;;;;0.19;87.01;92703.06;4820616;29;20443;-70
2021/12/11 00:49:52;;;;;;;3.13;0.77;;;;;;;0.09;87.60;92706.50;4825228;29;20046;-70
2021/12/11 00:52:32;;;;;;;2.17;0.80;;;;;;;0.08;88.02;92718.44;4838381;29;20554;-70
2021/12/11 00:55:04;;;;;;;2.60;1.30;;;;;;;0.00;89.02;92708.78;4839059;29;20117;-69
2021/12/11 00:57:31;;;;;;;2.60;1.08;;;;;;;0.00;88.69;92714.19;4838087;29;20776;-69
2021/12/11 01:00:09;;;;;;;2.05;0.85;;;;;;;-0.02;89.19;92719.16;4838824;29;20458;-70
2021/12/11 01:02:37;;;;;;;2.00;0.90;;;;;;;0.01;89.49;92723.81;4838533;29;21805;-70
2021/12/11 01:05:07;;;;;;;2.10;0.90;;;;;;;0.05;89.44;92723.81;4829141;29;20062;-66
2021/12/11 01:07:35;;;;;;;2.47;1.20;;;;;;;-0.10;91.05;92725.66;4811649;29;20066;-68
2021/12/11 01:10:16;;;;;;;2.35;1.23;;;;;;;-0.10;90.82;92733.75;4824275;29;20050;-69
2021/12/11 01:12:52;;;;;;;2.35;0.82;;;;;;;-0.16;90.78;92738.75;4823582;29;21832;-69
2021/12/11 01:15:33;;;;;;;2.33;1.10;;;;;;;-0.19;91.47;92741.41;4823581;29;20061;-69
2021/12/11 01:21:44;;;;;;;2.10;0.82;;;;;;;-0.25;92.09;92759.84;4823318;29;20627;-70
2021/12/11 01:24:10;;;;;;;2.35;1.30;;;;;;;-0.25;92.94;92765.25;4820524;29;20087;-69
2021/12/11 01:26:42;;;;;;;2.83;1.15;;;;;;;-0.21;93.13;92757.97;4823441;29;20047;-69
2021/12/11 01:29:10;;;;;;;2.40;1.00;;;;;;;-0.19;92.42;92765.69;4823484;29;20058;-69
2021/12/11 01:31:37;;;;;;;2.22;0.88;;;;;;;-0.31;92.58;92770.22;4824276;29;20050;-69
2021/12/11 01:34:04;;;;;;;2.83;1.00;;;;;;;-0.27;92.64;92772.94;4822254;29;20058;-67
2021/12/11 01:36:32;;;;;;;2.10;1.00;;;;;;;-0.30;93.30;92777.16;4823964;29;20057;-69
2021/12/11 01:39:03;;;;;;;3.28;1.42;;;;;;;-0.22;93.40;92791.47;4823914;29;20060;-72
2021/12/11 01:41:32;;;;;;;2.10;1.13;;;;;;;-0.22;93.21;92786.84;4823060;29;20856;-69
2021/12/11 01:44:05;;;;;;;2.20;1.08;;;;;;;-0.30;94.00;92801.44;4822684;29;20046;-69
2021/12/11 01:46:32;;;;;;;2.20;0.93;;;;;;;-0.27;93.50;92803.38;4823091;29;20422;-69
2021/12/11 01:49:03;;;;;;;3.00;1.20;;;;;;;-0.32;93.95;92798.34;4837821;29;20085;-70
2021/12/11 01:51:36;;;;;;;8.32;3.92;;;;;;;-0.21;93.89;92798.41;4840450;29;20436;-69
2021/12/11 01:54:12;;;;;;;2.87;0.90;;;;;;;-0.24;93.45;92813.41;4842021;29;20393;-70
2021/12/11 01:56:42;;;;;;;2.22;1.02;;;;;;;-0.35;94.44;92809.09;4840862;29;21714;-70
2021/12/11 01:59:18;;;;;;;2.40;1.10;;;;;;;-0.35;94.66;92811.78;4853247;29;20045;-70
2021/12/11 02:02:06;;;;;;;2.42;1.20;;;;;;;-0.38;94.25;92810.63;4842301;29;20157;-70
2021/12/11 02:04:43;;;;;;;2.40;1.20;;;;;;;-0.32;94.15;92821.81;4838842;29;20735;-69
2021/12/11 02:07:15;;;;;;;2.30;1.20;;;;;;;-0.31;94.02;92820.66;4811703;29;20050;-70
2021/12/11 02:09:50;;;;;;;2.30;0.98;;;;;;;-0.33;94.13;92823.72;4805680;29;20073;-70
2021/12/11 02:12:26;;;;;;;2.30;1.20;;;;;;;-0.34;94.02;92826.78;4817921;29;20054;-69
2021/12/11 02:14:55;;;;;;;3.05;1.08;;;;;;;-0.32;94.11;92821.81;4805245;29;20057;-69
2021/12/11 02:17:30;;;;;;;2.60;1.23;;;;;;;-0.37;93.84;92828.31;4808493;29;20115;-70
2021/12/11 02:20:00;;;;;;;2.10;0.90;;;;;;;-0.35;94.53;92827.97;4808685;29;20055;-69
2021/12/11 02:22:37;;;;;;;2.50;0.90;;;;;;;-0.32;93.66;92838.78;4819983;29;20080;-69
2021/12/11 02:25:12;;;;;;;2.53;1.00;;;;;;;-0.28;94.14;92836.88;4804121;29;20497;-68
2021/12/11 02:27:48;;;;;;;2.33;1.13;;;;;;;-0.27;93.71;92843.81;4805390;29;20105;-69
2021/12/11 02:30:24;;;;;;;2.28;0.95;;;;;;;-0.32;93.56;92840.66;4803537;29;20051;-69
2021/12/11 02:32:50;;;;;;;2.10;0.80;;;;;;;-0.31;93.39;92839.53;4805596;29;20099;-69
2021/12/11 02:35:37;;;;;;;2.55;1.10;;;;;;;-0.30;93.99;92843.78;4804194;29;20093;-69
2021/12/11 02:38:12;;;;;;;2.08;1.10;;;;;;;-0.35;93.96;92836.03;4804301;29;20050;-65
2021/12/11 02:40:45;;;;;;;2.50;1.05;;;;;;;-0.47;94.64;92834.41;4804914;29;20059;-69
2021/12/11 02:43:37;;;;;;;2.42;1.10;;;;;;;-0.41;94.28;92835.59;4804214;29;20051;-69
2021/12/11 02:46:11;;;;;;;2.00;1.10;;;;;;;-0.43;94.10;92843.28;4804208;29;20766;-67
2021/12/11 02:48:45;;;;;;;2.58;1.25;;;;;;;-0.43;94.91;92851.38;4805060;29;20055;-69
2021/12/11 02:51:39;;;;;;;3.10;1.50;;;;;;;-0.41;94.88;92862.56;4833945;29;20046;-69
2021/12/11 02:54:26;;;;;;;3.33;1.35;;;;;;;-0.39;94.95;92860.25;4840527;29;20064;-69
2021/12/11 02:56:57;;;;;;;2.47;1.15;;;;;;;-0.36;95.15;92861.44;4840871;29;20049;-69
2021/12/11 02:59:28;;;;;;;2.20;1.20;;;;;;;-0.41;95.19;92871.41;4840370;29;20049;-69
2021/12/11 03:02:02;;;;;;;3.25;1.30;;;;;;;-0.36;95.11;92878.41;4855403;29;20068;-69
2021/12/11 03:04:37;;;;;;;2.33;1.00;;;;;;;-0.38;94.80;92869.91;4839968;29;22381;-69
2021/12/11 03:07:08;;;;;;;3.35;1.25;;;;;;;-0.39;94.56;92879.13;4840115;29;20088;-71
2021/12/11 03:09:41;;;;;;;9.15;2.70;;;;;;;-0.32;94.32;92890.00;4840747;29;20492;-69
2021/12/11 03:12:11;;;;;;;2.07;0.80;;;;;;;-0.33;93.92;92891.13;4840171;29;20533;-70
2021/12/11 03:14:39;;;;;;;2.22;0.98;;;;;;;-0.29;94.02;92891.94;4840524;29;20053;-69
2021/12/11 03:17:07;;;;;;;5.13;1.60;;;;;;;-0.32;94.23;92899.97;4840079;29;20052;-69
2021/12/11 03:19:39;;;;;;;4.07;1.60;;;;;;;-0.32;94.72;92891.91;4840741;29;20434;-70
2021/12/11 03:22:14;;;;;;;2.78;1.60;;;;;;;-0.34;94.08;92896.88;4839968;29;20056;-69
2021/12/11 03:24:40;;;;;;;2.50;0.90;;;;;;;-0.29;93.88;92918.13;4840765;29;20050;-69
2021/12/11 03:27:07;;;;;;;2.83;0.90;;;;;;;-0.35;93.44;92912.28;4840030;29;20049;-69
2021/12/11 03:29:35;;;;;;;1.98;1.05;;;;;;;-0.30;93.83;92919.25;4838907;29;20049;-69
2021/12/11 03:32:08;;;;;;;2.50;1.40;;;;;;;-0.27;93.64;92926.63;4840319;29;20050;-69
2021/12/11 03:34:36;;;;;;;4.45;2.63;;;;;;;-0.25;92.92;92922.41;4837375;29;20648;-69
2021/12/11 03:37:07;;;;;;;3.53;1.83;;;;;;;-0.25;92.77;92919.69;4805507;29;20051;-69
2021/12/11 03:39:39;;;;;;;2.83;1.10;;;;;;;-0.21;92.49;92928.59;4820788;29;20696;-69
2021/12/11 03:42:13;;;;;;;2.72;1.00;;;;;;;-0.11;93.02;92929.84;4821584;29;20047;-71
2021/12/11 03:44:42;;;;;;;2.00;0.88;;;;;;;-0.14;91.70;92936.00;4821697;29;20054;-69
2021/12/11 03:47:15;;;;;;;2.17;1.38;;;;;;;-0.19;92.41;92932.84;4821367;29;20050;-69
2021/12/11 03:49:42;;;;;;;2.13;1.10;;;;;;;-0.18;92.76;92934.38;4825651;29;20437;-69
2021/12/11 03:52:14;;;;;;;2.50;1.20;;;;;;;-0.17;92.83;92944.81;4838783;29;20060;-69
2021/12/11 03:54:43;;;;;;;2.72;1.52;;;;;;;-0.05;91.73;92943.75;4839848;29;20046;-69
2021/12/11 03:57:15;;;;;;;2.63;1.20;;;;;;;-0.09;90.89;92949.13;4838971;29;20053;-70
2021/12/11 03:59:48;;;;;;;2.30;1.40;;;;;;;-0.08;91.76;92961.47;4839663;29;20484;-69
2021/12/11 04:02:19;;;;;;;2.53;1.07;;;;;;;-0.07;91.45;92957.59;4839127;29;20045;-70
2021/12/11 04:04:50;;;;;;;2.53;1.40;;;;;;;-0.15;91.76;92958.69;4839807;29;20419;-69
2021/12/11 04:07:22;;;;;;;2.33;1.05;;;;;;;-0.12;91.00;92959.88;4839041;29;20050;-69
2021/12/11 04:09:50;;;;;;;2.65;1.25;;;;;;;-0.09;90.46;92965.31;4839819;29;20052;-69
2021/12/11 04:12:20;;;;;;;2.13;1.20;;;;;;;-0.13;90.93;92971.81;4839100;29;20046;-69
2021/12/11 04:14:49;;;;;;;2.63;1.20;;;;;;;-0.11;90.90;92978.38;4853653;29;20050;-70
2021/12/11 04:17:18;;;;;;;3.15;1.40;;;;;;;-0.01;90.50;92974.25;4853491;29;20385;-69
2021/12/11 04:19:46;;;;;;;2.33;1.20;;;;;;;-0.07;90.25;92981.88;4839736;29;20054;-70
2021/12/11 04:22:12;;;;;;;2.20;1.00;;;;;;;-0.07;90.42;92975.72;4838953;29;20388;-69
2021/12/11 04:24:42;;;;;;;2.55;1.40;;;;;;;-0.02;89.92;92980.75;4839605;29;20042;-69
2021/12/11 04:27:13;;;;;;;2.47;1.30;;;;;;;0.05;90.40;92985.47;4839167;29;20049;-70
2021/12/11 04:29:42;;;;;;;3.30;1.42;;;;;;;-0.06;89.72;92990.75;4839392;29;20104;-69
2021/12/11 04:32:10;;;;;;;2.67;1.45;;;;;;;-0.06;89.95;92999.63;4838869;29;20165;-70
2021/12/11 04:34:37;;;;;;;2.60;1.23;;;;;;;-0.10;90.21;93003.41;4836037;29;20052;-69
2021/12/11 04:37:14;;;;;;;3.25;1.65;;;;;;;-0.08;89.78;93004.63;4807401;29;20501;-68
2021/12/11 04:39:51;;;;;;;6.20;2.90;;;;;;;0.08;89.62;93009.00;4821476;29;20052;-70
2021/12/11 04:42:36;;;;;;;4.78;2.50;;;;;;;0.12;89.60;93016.00;4803825;29;20046;-69
2021/12/11 04:45:14;;;;;;;3.53;1.50;;;;;;;0.09;88.69;93021.34;4821432;29;20415;-69
2021/12/11 04:47:48;;;;;;;3.97;1.40;;;;;;;0.25;89.25;93023.81;4820531;29;20050;-69
2021/12/11 04:50:29;;;;;;;4.63;1.58;;;;;;;0.14;88.63;93021.00;4841119;29;20046;-69
2021/12/11 04:52:58;;;;;;;4.93;2.03;;;;;;;0.10;89.29;93033.66;4839204;29;20050;-69
2021/12/11 04:55:53;;;;;;;2.97;1.60;;;;;;;0.11;89.45;93040.63;4838634;29;20432;-69
2021/12/11 05:09:21;;;;;;;2.83;1.70;;;;;;;0.20;90.07;93051.88;4839229;29;20488;-69
2021/12/11 05:12:05;;;;;;;3.30;1.73;;;;;;;0.29;89.70;93051.59;4838373;29;20053;-69
2021/12/11 05:14:33;;;;;;;3.30;1.75;;;;;;;0.37;89.70;93064.00;4838118;29;20096;-70
2021/12/11 05:17:00;;;;;;;3.42;1.45;;;;;;;0.41;89.47;93067.50;4839660;29;20050;-69
2021/12/11 05:19:26;;;;;;;3.10;1.20;;;;;;;0.26;89.62;93071.97;4838981;29;20042;-69
2021/12/11 05:21:53;;;;;;;2.88;1.50;;;;;;;0.14;89.89;93080.34;4853734;29;20074;-69
2021/12/11 05:24:20;;;;;;;2.90;1.75;;;;;;;-0.15;90.87;93087.38;4838453;29;20102;-69
2021/12/11 05:26:47;;;;;;;4.22;1.83;;;;;;;0.08;91.47;93089.91;4839581;29;20050;-69
2021/12/11 05:29:14;;;;;;;3.60;1.30;;;;;;;0.05;90.58;93090.66;4852945;29;20064;-70
2021/12/11 05:31:41;;;;;;;3.10;1.73;;;;;;;-0.08;91.17;93088.22;4839700;29;20054;-70
2021/12/11 05:34:08;;;;;;;3.55;1.63;;;;;;;0.03;90.95;93101.81;4838976;29;20385;-71
2021/12/11 05:36:36;;;;;;;3.17;1.67;;;;;;;-0.01;91.57;93109.09;4838794;29;20049;-69
2021/12/11 05:39:13;;;;;;;5.00;2.25;;;;;;;-0.08;91.19;93107.09;4839327;29;20064;-70
2021/12/11 05:41:42;;;;;;;5.40;2.55;;;;;;;-0.07;91.37;93113.28;4838353;29;20071;-69
2021/12/11 05:44:10;;;;;;;6.63;2.13;;;;;;;-0.02;90.69;93118.31;4838523;29;20052;-69
2021/12/11 05:46:37;;;;;;;4.30;2.20;;;;;;;0.13;90.46;93122.75;4838786;29;20080;-69
2021/12/11 05:49:05;;;;;;;3.92;1.92;;;;;;;0.01;90.46;93131.09;4838616;29;20663;-67
2021/12/11 05:51:38;;;;;;;4.40;2.25;;;;;;;-0.04;90.99;93140.28;4837498;29;20412;-69
2021/12/11 05:54:09;;;;;;;4.10;2.25;;;;;;;0.04;90.97;93140.34;4839705;29;20050;-70
2021/12/11 05:56:39;;;;;;;4.87;2.00;;;;;;;-0.05;90.78;93149.50;4841584;29;20046;-69
2021/12/11 05:59:08;;;;;;;3.45;2.00;;;;;;;-0.12;91.37;93152.13;4831287;29;20090;-69
2021/12/11 06:01:39;;;;;;;6.28;2.00;;;;;;;-0.03;91.09;93166.09;4808913;29;20512;-69
2021/12/11 06:04:14;;;;;;;3.80;2.17;;;;;;;-0.09;91.60;93161.41;4823312;29;20056;-69
2021/12/11 06:06:42;;;;;;;4.53;2.50;;;;;;;0.06;91.50;93165.03;4836730;29;20046;-69
2021/12/11 06:09:11;;;;;;;5.43;2.50;;;;;;;0.12;91.37;93172.47;4842653;29;20046;-69
2021/12/11 06:11:39;;;;;;;6.55;3.00;;;;;;;0.24;90.82;93184.13;4845614;29;20046;-69
2021/12/11 06:14:06;;;;;;;5.13;2.65;;;;;;;0.10;89.93;93184.75;4845053;29;20057;-69
2021/12/11 06:16:33;;;;;;;3.45;1.95;;;;;;;0.05;89.57;93193.19;4844706;29;20106;-70
2021/12/11 06:19:04;;;;;;;4.72;2.30;;;;;;;0.02;90.02;93200.09;4843275;29;20050;-70
2021/12/11 06:21:33;;;;;;;4.57;1.93;;;;;;;0.14;89.67;93193.66;4840466;29;20424;-69
2021/12/11 06:24:01;;;;;;;3.60;1.85;;;;;;;0.08;89.27;93211.31;4840556;29;20445;-69
2021/12/11 06:26:28;;;;;;;4.00;2.20;;;;;;;0.07;89.49;93204.38;4839633;29;20523;-70
2021/12/11 06:28:55;;;;;;;4.90;2.42;;;;;;;0.08;89.16;93217.50;4841380;29;20057;-70
2021/12/11 06:31:22;;;;;;;6.65;3.55;;;;;;;0.16;89.53;93218.34;4840104;29;20049;-70
2021/12/11 06:33:51;;;;;;;6.70;3.47;;;;;;;0.17;88.96;93222.63;4842156;29;20496;-70
2021/12/11 06:36:20;;;;;;;3.88;1.98;;;;;;;0.17;88.75;93233.41;4854949;29;20050;-69
2021/12/11 06:38:52;;;;;;;4.88;2.33;;;;;;;0.21;88.70;93234.22;4841575;29;20133;-70
2021/12/11 06:41:23;;;;;;;6.18;3.42;;;;;;;0.13;88.82;93241.44;4840625;29;20042;-70
2021/12/11 06:43:50;;;;;;;8.00;3.40;;;;;;;0.03;89.04;93244.78;4841195;29;20050;-70
2021/12/11 06:46:18;;;;;;;4.13;2.33;;;;;;;0.03;89.39;93247.50;4854807;29;20058;-70
2021/12/11 06:48:45;;;;;;;3.97;2.22;;;;;;;0.10;89.50;93258.38;4841325;29;20062;-70
2021/12/11 06:51:12;;;;;;;5.13;2.20;;;;;;;0.01;89.16;93257.09;4840268;29;20058;-70
2021/12/11 06:53:44;;;;;;;5.25;3.33;;;;;;;0.06;88.95;93260.25;4840820;29;20046;-69
2021/12/11 06:56:13;;;;;;;5.53;2.70;;;;;;;0.14;88.78;93272.69;4840694;29;20053;-70
2021/12/11 06:58:40;;;;;;;13.57;6.53;;;;;;;0.16;89.07;93281.22;4840562;29;20056;-69
2021/12/11 07:01:09;;;;;;;15.20;6.80;;;;;;;0.21;88.65;93284.72;4840457;29;20056;-69
2021/12/11 07:03:38;;;;;;;6.97;3.90;;;;;;;0.26;88.94;93287.88;4817566;29;20050;-70
2021/12/11 07:06:07;;;;;;;6.68;4.00;;;;;;;0.10;89.06;93298.84;4811814;29;20062;-69
2021/12/11 07:08:36;;;;;;;6.80;4.25;;;;;;;0.14;89.39;93296.19;4836165;29;20057;-69
2021/12/11 07:11:03;;;;;;;27.10;12.77;;;;;;;-0.02;89.29;93299.03;4822323;29;20111;-69
2021/12/11 07:13:29;;;;;;;11.38;6.13;;;;;;;0.14;89.77;93309.66;4820903;29;20167;-69
2021/12/11 07:15:57;;;;;;;9.73;6.20;;;;;;;0.24;89.04;93310.97;4822117;29;20412;-69
2021/12/11 07:18:27;;;;;;;10.15;6.10;;;;;;;0.23;89.58;93315.59;4821525;29;20050;-70
2021/12/11 07:20:55;;;;;;;10.60;6.47;;;;;;;0.37;89.36;93326.56;4822204;29;20046;-69
2021/12/11 07:23:22;;;;;;;11.67;5.70;;;;;;;0.41;88.81;93329.34;4835360;29;20448;-69
2021/12/11 07:26:05;;;;;;;14.18;5.60;;;;;;;0.33;89.89;93333.84;4822114;29;20046;-69
2021/12/11 07:28:32;;;;;;;9.43;4.88;;;;;;;0.37;89.49;93340.06;4821064;29;21572;-69
2021/12/11 07:30:59;;;;;;;8.60;4.18;;;;;;;-0.13;91.76;93349.38;4836017;29;20109;-69
2021/12/11 07:33:26;;;;;;;7.70;4.20;;;;;;;-0.42;93.92;93349.69;4821308;29;20424;-69
2021/12/11 07:35:53;;;;;;;8.43;4.50;;;;;;;-0.41;94.42;93362.00;4821888;29;20050;-69
2021/12/11 07:38:21;;;;;;;10.27;5.63;;;;;;;-0.55;94.90;93361.75;4819855;29;20054;-70
2021/12/11 07:40:54;;;;;;;7.63;4.22;;;;;;;-0.50;95.57;93374.97;4822067;29;20454;-69
2021/12/11 07:43:24;;;;;;;5.82;3.33;;;;;;;-0.49;94.38;93381.88;4820942;29;20050;-69
2021/12/11 07:45:51;;;;;;;7.93;4.00;;;;;;;-0.26;94.04;93384.63;4821949;29;20054;-69
2021/12/11 07:48:23;;;;;;;7.83;3.43;;;;;;;-0.17;93.15;93395.16;4821316;29;20162;-70
2021/12/11 07:50:51;;;;;;;9.18;4.45;;;;;;;-0.06;92.61;93401.50;4832714;29;20050;-69
2021/12/11 07:53:19;;;;;;;10.35;4.55;;;;;;;-0.24;93.23;93411.22;4839701;29;20053;-69
2021/12/11 07:55:46;;;;;;;9.38;5.10;;;;;;;0.01;92.62;93418.94;4838632;29;20065;-69
2021/12/11 07:58:13;;;;;;;11.48;5.40;;;;;;;-0.18;92.60;93425.16;4837907;29;20050;-69
2021/12/11 08:00:42;;;;;;;6.00;2.90;;;;;;;-0.33;92.95;93421.44;4839525;29;20056;-69
2021/12/11 08:03:12;;;;;;;6.35;3.25;;;;;;;-0.30;93.34;93423.41;4825312;29;20063;-69
2021/12/11 08:05:42;;;;;;;10.75;3.30;;;;;;;-0.17;93.17;93438.28;4818890;29;20098;-69
2021/12/11 08:08:10;;;;;;;5.47;3.35;;;;;;;-0.30;93.52;93444.97;4839462;29;20061;-69
2021/12/11 08:10:42;;;;;;;16.45;7.22;;;;;;;-0.36;94.33;93449.13;4839650;29;20052;-69
2021/12/11 08:13:11;;;;;;;12.07;5.60;;;;;;;-0.57;95.51;93458.38;4828155;29;20054;-70
2021/12/11 08:15:40;;;;;;;9.00;5.18;;;;;;;-0.83;96.62;93456.31;4806624;29;20443;-69
2021/12/11 08:18:09;;;;;;;10.88;6.25;;;;;;;-0.72;96.94;93461.94;4802450;29;20055;-70
2021/12/11 08:20:37;;;;;;;19.75;9.20;;;;;;;-0.38;96.93;93478.34;4802516;29;20461;-69
2021/12/11 08:23:05;;;;;;;12.05;5.97;;;;;;;-0.29;95.45;93482.38;4802775;29;20095;-68
2021/12/11 08:25:34;;;;;;;11.10;5.57;;;;;;;-0.32;95.23;93483.13;4802849;29;20047;-69
2021/12/11 08:28:02;;;;;;;7.90;3.60;;;;;;;-0.56;95.04;93491.47;4803006;29;20076;-69
2021/12/11 08:30:33;;;;;;;6.93;3.95;;;;;;;-0.50;95.39;93492.78;4801789;29;20349;-69
2021/12/11 08:32:59;;;;;;;6.88;3.60;;;;;;;-0.39;95.16;93499.13;4803222;29;20053;-69
2021/12/11 08:35:27;;;;;;;4.68;2.28;;;;;;;-0.50;93.98;93507.03;4802159;29;20047;-69
2021/12/11 08:37:54;;;;;;;4.30;2.40;;;;;;;-0.15;93.70;93503.44;4802942;29;20073;-70
2021/12/11 08:40:27;;;;;;;5.28;2.00;;;;;;;-0.12;92.90;93515.41;4816457;29;20054;-69
2021/12/11 08:42:55;;;;;;;5.20;2.53;;;;;;;-0.22;91.95;93520.28;4802680;29;20051;-69
2021/12/11 08:45:33;;;;;;;9.15;3.80;;;;;;;-0.18;91.80;93524.94;4802318;29;20051;-69
2021/12/11 08:48:00;;;;;;;11.35;5.63;;;;;;;-0.15;92.23;93535.81;4802931;29;20062;-69
2021/12/11 08:50:31;;;;;;;11.87;6.23;;;;;;;-0.29;92.43;93543.63;4820631;29;20492;-69
2021/12/11 08:52:58;;;;;;;17.23;8.80;;;;;;;-0.11;92.63;93549.38;4839302;29;20042;-69
2021/12/11 08:55:31;;;;;;;8.15;4.75;;;;;;;-0.18;91.85;93547.31;4838401;29;20490;-70
2021/12/11 08:57:59;;;;;;;11.30;4.60;;;;;;;-0.10;91.89;93554.41;4838784;29;20094;-69
2021/12/11 09:00:28;;;;;;;10.32;4.90;;;;;;;0.13;91.52;93548.25;4838513;29;20046;-70
2021/12/11 09:03:02;;;;;;;7.30;3.70;;;;;;;0.14;90.77;93557.91;4839364;29;20073;-69
2021/12/11 09:05:45;;;;;;;8.80;3.47;;;;;;;0.01;91.68;93567.31;4837583;29;20684;-69
2021/12/11 09:08:25;;;;;;;9.40;3.80;;;;;;;0.00;91.15;93569.25;4837331;29;20042;-69
2021/12/11 09:10:56;;;;;;;10.68;4.43;;;;;;;0.05;91.30;93577.03;4839102;29;20046;-69
2021/12/11 09:13:32;;;;;;;8.40;4.50;;;;;;;0.04;91.49;93578.19;4852732;29;20410;-69
2021/12/11 09:16:02;;;;;;;9.00;5.03;;;;;;;-0.05;91.61;93585.69;4837721;29;20072;-69
2021/12/11 09:18:35;;;;;;;9.48;4.78;;;;;;;-0.25;92.17;93588.38;4820037;29;20047;-69
2021/12/11 09:21:13;;;;;;;5.50;3.20;;;;;;;-0.12;90.72;93591.75;4815744;29;20050;-69
2021/12/11 09:23:50;;;;;;;7.28;4.70;;;;;;;-0.22;91.59;93601.19;4819681;29;20810;-69
2021/12/11 09:26:40;;;;;;;8.43;4.20;;;;;;;-0.13;90.38;93609.03;4820301;29;20050;-69
2021/12/11 09:29:30;;;;;;;5.83;3.23;;;;;;;0.00;89.02;93620.50;4822360;29;20534;-70
2021/12/11 09:32:15;;;;;;;6.00;3.10;;;;;;;0.16;87.68;93623.09;4822996;29;20050;-69
2021/12/11 09:35:10;;;;;;;6.97;4.32;;;;;;;0.45;86.38;93623.63;4822854;29;21577;-69
2021/12/11 09:37:38;;;;;;;6.20;3.00;;;;;;;0.53;85.74;93623.41;4822742;29;20768;-70
2021/12/11 09:40:10;;;;;;;7.32;2.50;;;;;;;0.62;85.17;93633.94;4823545;29;20058;-69
2021/12/11 09:42:37;;;;;;;4.20;2.30;;;;;;;0.26;85.76;93637.91;4823503;29;20710;-69
2021/12/11 09:45:10;;;;;;;4.57;2.47;;;;;;;0.82;84.94;93640.09;4824037;29;20481;-70
2021/12/11 09:47:41;;;;;;;3.72;2.30;;;;;;;0.93;83.20;93648.38;4822575;29;20916;-69
2021/12/11 09:50:16;;;;;;;5.75;3.15;;;;;;;0.87;83.79;93641.72;4829994;29;20054;-69
2021/12/11 09:52:46;;;;;;;5.03;2.55;;;;;;;0.76;83.98;93655.03;4841613;29;20056;-69
2021/12/11 09:55:29;;;;;;;5.17;2.73;;;;;;;0.53;84.62;93663.13;4841596;29;20069;-69
2021/12/11 09:58:00;;;;;;;4.00;2.50;;;;;;;0.81;84.25;93665.56;4841538;29;20060;-69
2021/12/11 10:01:01;;;;;;;3.83;2.25;;;;;;;0.93;83.52;93662.66;4841700;29;20056;-69
2021/12/11 10:03:34;;;;;;;4.28;2.30;;;;;;;0.91;83.75;93673.06;4829956;29;20050;-70
2021/12/11 10:06:27;;;;;;;4.25;2.53;;;;;;;1.39;82.41;93676.16;4841782;29;20065;-69
2021/12/11 10:09:09;;;;;;;3.80;2.40;;;;;;;1.45;80.99;93676.63;4840152;29;20896;-69
2021/12/11 10:11:36;;;;;;;5.10;3.20;;;;;;;1.81;81.24;93679.81;4855080;29;20389;-70
2021/12/11 10:14:10;;;;;;;6.25;3.40;;;;;;;2.11;79.77;93677.16;4841559;29;20050;-69
2021/12/11 10:16:50;;;;;;;4.25;2.40;;;;;;;1.73;78.74;93681.69;4834728;29;20919;-69
2021/12/11 10:19:19;;;;;;;7.03;3.20;;;;;;;1.78;80.50;93699.50;4811568;29;20055;-69
2021/12/11 10:21:53;;;;;;;6.93;2.90;;;;;;;2.10;77.96;93685.63;4821783;29;20069;-69
2021/12/11 10:24:24;;;;;;;4.55;2.80;;;;;;;2.42;76.83;93696.88;4822703;29;20050;-69
2021/12/11 10:26:53;;;;;;;3.70;1.98;;;;;;;2.16;76.03;93689.59;4821561;29;20054;-69
2021/12/11 10:29:22;;;;;;;4.78;2.70;;;;;;;2.15;76.86;93693.44;4822961;29;20062;-69
2021/12/11 10:32:06;;;;;;;6.85;3.90;;;;;;;2.38;76.80;93688.69;4822628;29;20051;-70
2021/12/11 10:34:38;;;;;;;5.77;3.53;;;;;;;2.04;77.28;93687.88;4822044;29;20746;-69
2021/12/11 10:37:13;;;;;;;7.15;4.10;;;;;;;2.66;75.81;93692.88;4822570;29;20046;-69
2021/12/11 10:39:44;;;;;;;6.57;3.92;;;;;;;3.22;74.60;93704.69;4821213;29;20042;-70
2021/12/11 10:42:12;;;;;;;5.40;2.95;;;;;;;3.36;72.60;93698.56;4839604;29;20079;-74
2021/12/11 10:44:44;;;;;;;7.45;4.10;;;;;;;1.37;78.02;93705.47;4825165;29;20056;-70
2021/12/11 10:47:15;;;;;;;7.57;3.80;;;;;;;1.74;77.65;93709.50;4822916;29;20488;-70
2021/12/11 10:50:05;;;;;;;7.18;3.80;;;;;;;2.16;74.89;93717.44;4829274;29;20135;-70
2021/12/11 10:52:32;;;;;;;7.05;4.18;;;;;;;2.48;74.82;93714.34;4838984;29;20491;-70
2021/12/11 10:55:03;;;;;;;6.60;4.18;;;;;;;2.26;74.38;93713.31;4840955;29;20050;-70
2021/12/11 10:57:31;;;;;;;7.22;4.70;;;;;;;2.66;73.55;93716.50;4839830;29;21615;-71
2021/12/11 10:59:59;;;;;;;8.93;5.27;;;;;;;3.06;71.69;93715.75;4841127;29;20064;-70
2021/12/11 11:02:30;;;;;;;7.10;4.10;;;;;;;2.42;73.51;93718.53;4839283;29;20130;-70
2021/12/11 11:05:00;;;;;;;7.30;3.63;;;;;;;3.74;70.94;93712.81;4841053;29;20073;-70
2021/12/11 11:07:28;;;;;;;6.22;3.70;;;;;;;4.04;69.04;93711.88;4840446;29;20042;-71
2021/12/11 11:09:59;;;;;;;5.18;3.25;;;;;;;3.27;70.26;93722.53;4840335;29;20515;-70
2021/12/11 11:12:27;;;;;;;10.30;3.37;;;;;;;4.06;68.68;93715.75;4840600;29;20046;-70
2021/12/11 11:14:55;;;;;;;6.00;4.20;;;;;;;4.05;67.52;93722.34;4840416;29;20061;-69
2021/12/11 11:17:29;;;;;;;5.05;3.08;;;;;;;5.02;64.62;93728.22;4824650;29;20051;-70
2021/12/11 11:19:56;;;;;;;4.57;2.60;;;;;;;4.78;64.91;93726.97;4814542;29;20059;-70
2021/12/11 11:22:28;;;;;;;4.65;3.20;;;;;;;3.93;66.21;93728.88;4803790;29;20046;-70
2021/12/11 11:25:06;;;;;;;4.77;2.73;;;;;;;6.39;59.54;93735.25;4804081;29;20492;-70
2021/12/11 11:27:34;;;;;;;6.55;3.40;;;;;;;6.13;61.20;93741.16;4802839;29;20722;-70
2021/12/11 11:30:01;;;;;;;4.75;2.90;;;;;;;4.96;63.50;93748.78;4804135;29;20051;-70
2021/12/11 11:32:33;;;;;;;7.13;4.72;;;;;;;5.86;60.81;93748.94;4803694;29;20054;-70
2021/12/11 11:35:07;;;;;;;6.82;4.00;;;;;;;6.87;58.38;93752.28;4804118;29;20069;-70
2021/12/11 11:37:46;;;;;;;5.30;3.43;;;;;;;6.24;59.50;93754.75;4802757;29;20263;-70
2021/12/11 11:40:18;;;;;;;5.80;3.00;;;;;;;5.32;61.85;93771.44;4803125;29;20073;-70
2021/12/11 11:42:46;;;;;;;9.25;6.72;;;;;;;4.54;64.08;93766.47;4803502;29;20058;-70
2021/12/11 11:45:13;;;;;;;5.20;3.30;;;;;;;4.10;65.51;93770.09;4803460;29;20497;-70
2021/12/11 11:47:40;;;;;;;6.82;3.80;;;;;;;3.90;66.91;93785.84;4803263;29;20073;-70
2021/12/11 11:50:11;;;;;;;10.33;5.73;;;;;;;3.83;67.76;93786.59;4817099;29;20057;-69
2021/12/11 11:52:40;;;;;;;8.63;5.30;;;;;;;3.90;67.97;93799.41;4853700;29;20492;-70
2021/12/11 11:55:15;;;;;;;5.40;3.17;;;;;;;3.65;69.57;93804.66;4839378;29;20046;-71
2021/12/11 11:57:47;;;;;;;5.20;3.40;;;;;;;3.64;70.77;93811.22;4839653;29;20064;-70
2021/12/11 12:00:23;;;;;;;6.65;4.25;;;;;;;3.66;70.51;93809.69;4839438;29;20087;-70
2021/12/11 12:02:51;;;;;;;4.83;3.20;;;;;;;3.16;70.65;93815.41;4853635;29;20052;-70
2021/12/11 12:05:19;;;;;;;4.57;2.72;;;;;;;2.36;73.76;93810.16;4839361;29;20112;-69
2021/12/11 12:07:46;;;;;;;5.95;3.70;;;;;;;2.27;75.34;93812.31;4839465;29;20054;-70
2021/12/11 12:10:17;;;;;;;8.70;5.00;;;;;;;2.40;76.02;93816.41;4839110;29;20050;-70
2021/12/11 12:12:45;;;;;;;6.65;4.22;;;;;;;2.37;75.41;93811.72;4839590;29;20514;-70